sensor_id;sensor_type;location;lat;lon;timestamp;P1;durP1;ratioP1;P2;durP2;ratioP2
43819;SDS011;59678;52.476;6.046;2022-08-25T00:01:12;13.55;;;8.77;;
43819;SDS011;59678;52.476;6.046;2022-08-25T00:03:39;12.02;;;8.80;;
43819;SDS011;59678;52.476;6.046;2022-08-25T00:06:06;12.35;;;8.60;;
43819;SDS011;59678;52.476;6.046;2022-08-25T00:08:31;10.95;;;9.05;;
43819;SDS011;59678;52.476;6.046;2022-08-25T00:11:03;12.85;;;8.82;;
43819;SDS011;59678;52.476;6.046;2022-08-25T00:13:29;12.10;;;8.30;;
43819;SDS011;59678;52.476;6.046;2022-08-25T00:15:54;9.15;;;8.23;;
43819;SDS011;59678;52.476;6.046;2022-08-25T00:18:20;10.65;;;8.30;;
43819;SDS011;59678;52.476;6.046;2022-08-25T00:20:46;11.10;;;8.32;;
43819;SDS011;59678;52.476;6.046;2022-08-25T00:23:12;12.13;;;8.60;;
43819;SDS011;59678;52.476;6.046;2022-08-25T00:25:37;13.65;;;8.80;;
43819;SDS011;59678;52.476;6.046;2022-08-25T00:28:03;12.63;;;8.57;;
43819;SDS011;59678;52.476;6.046;2022-08-25T00:30:28;12.15;;;8.70;;
43819;SDS011;59678;52.476;6.046;2022-08-25T00:32:54;10.77;;;8.75;;
43819;SDS011;59678;52.476;6.046;2022-08-25T00:35:20;12.23;;;8.85;;
43819;SDS011;59678;52.476;6.046;2022-08-25T00:37:45;9.38;;;8.40;;
43819;SDS011;59678;52.476;6.046;2022-08-25T00:40:11;9.55;;;8.13;;
43819;SDS011;59678;52.476;6.046;2022-08-25T00:42:36;8.70;;;7.90;;
43819;SDS011;59678;52.476;6.046;2022-08-25T00:45:03;8.95;;;7.63;;
43819;SDS011;59678;52.476;6.046;2022-08-25T00:47:29;9.80;;;7.60;;
43819;SDS011;59678;52.476;6.046;2022-08-25T00:49:57;11.57;;;7.47;;
43819;SDS011;59678;52.476;6.046;2022-08-25T00:54:55;11.27;;;6.90;;
43819;SDS011;59678;52.476;6.046;2022-08-25T00:57:24;9.25;;;7.60;;
43819;SDS011;59678;52.476;6.046;2022-08-25T00:59:51;8.00;;;6.85;;
43819;SDS011;59678;52.476;6.046;2022-08-25T01:02:17;12.43;;;7.38;;
43819;SDS011;59678;52.476;6.046;2022-08-25T01:04:43;7.93;;;6.57;;
43819;SDS011;59678;52.476;6.046;2022-08-25T01:07:10;13.15;;;7.85;;
43819;SDS011;59678;52.476;6.046;2022-08-25T01:09:35;9.40;;;6.60;;
43819;SDS011;59678;52.476;6.046;2022-08-25T01:12:02;7.68;;;6.65;;
43819;SDS011;59678;52.476;6.046;2022-08-25T01:14:28;7.60;;;6.10;;
43819;SDS011;59678;52.476;6.046;2022-08-25T01:16:55;14.05;;;6.57;;
43819;SDS011;59678;52.476;6.046;2022-08-25T01:19:22;13.57;;;6.45;;
43819;SDS011;59678;52.476;6.046;2022-08-25T01:21:50;10.23;;;6.28;;
43819;SDS011;59678;52.476;6.046;2022-08-25T01:27:11;8.32;;;6.43;;
43819;SDS011;59678;52.476;6.046;2022-08-25T01:29:37;10.20;;;6.82;;
43819;SDS011;59678;52.476;6.046;2022-08-25T01:32:04;9.90;;;7.20;;
43819;SDS011;59678;52.476;6.046;2022-08-25T01:34:31;7.70;;;6.15;;
43819;SDS011;59678;52.476;6.046;2022-08-25T01:36:57;12.05;;;7.00;;
43819;SDS011;59678;52.476;6.046;2022-08-25T01:39:24;8.13;;;6.75;;
43819;SDS011;59678;52.476;6.046;2022-08-25T01:41:57;10.35;;;6.75;;
43819;SDS011;59678;52.476;6.046;2022-08-25T01:44:27;10.15;;;6.53;;
43819;SDS011;59678;52.476;6.046;2022-08-25T01:46:53;7.70;;;6.22;;
43819;SDS011;59678;52.476;6.046;2022-08-25T01:49:19;9.15;;;6.68;;
43819;SDS011;59678;52.476;6.046;2022-08-25T01:51:55;10.15;;;6.55;;
43819;SDS011;59678;52.476;6.046;2022-08-25T01:54:21;10.52;;;6.75;;
43819;SDS011;59678;52.476;6.046;2022-08-25T01:56:47;7.95;;;6.57;;
43819;SDS011;59678;52.476;6.046;2022-08-25T01:59:16;9.32;;;6.20;;
43819;SDS011;59678;52.476;6.046;2022-08-25T02:01:42;8.30;;;6.03;;
43819;SDS011;59678;52.476;6.046;2022-08-25T02:04:08;6.60;;;5.90;;
43819;SDS011;59678;52.476;6.046;2022-08-25T02:06:33;11.25;;;6.95;;
43819;SDS011;59678;52.476;6.046;2022-08-25T02:09:10;7.25;;;6.20;;
43819;SDS011;59678;52.476;6.046;2022-08-25T02:11:36;10.88;;;7.10;;
43819;SDS011;59678;52.476;6.046;2022-08-25T02:14:03;10.02;;;6.97;;
43819;SDS011;59678;52.476;6.046;2022-08-25T02:16:31;8.75;;;6.20;;
43819;SDS011;59678;52.476;6.046;2022-08-25T02:18:56;9.25;;;6.38;;
43819;SDS011;59678;52.476;6.046;2022-08-25T02:21:23;11.40;;;6.60;;
43819;SDS011;59678;52.476;6.046;2022-08-25T02:23:49;8.07;;;6.05;;
43819;SDS011;59678;52.476;6.046;2022-08-25T02:26:15;9.15;;;6.00;;
43819;SDS011;59678;52.476;6.046;2022-08-25T02:28:44;7.47;;;5.93;;
43819;SDS011;59678;52.476;6.046;2022-08-25T02:31:10;8.55;;;6.28;;
43819;SDS011;59678;52.476;6.046;2022-08-25T02:33:36;11.48;;;6.40;;
43819;SDS011;59678;52.476;6.046;2022-08-25T02:36:02;8.77;;;5.68;;
43819;SDS011;59678;52.476;6.046;2022-08-25T02:38:28;6.55;;;5.45;;
43819;SDS011;59678;52.476;6.046;2022-08-25T02:40:54;9.05;;;5.68;;
43819;SDS011;59678;52.476;6.046;2022-08-25T02:43:20;7.85;;;5.60;;
43819;SDS011;59678;52.476;6.046;2022-08-25T02:45:46;8.30;;;5.97;;
43819;SDS011;59678;52.476;6.046;2022-08-25T02:48:11;6.70;;;5.20;;
43819;SDS011;59678;52.476;6.046;2022-08-25T02:50:36;8.27;;;5.03;;
43819;SDS011;59678;52.476;6.046;2022-08-25T02:53:02;9.13;;;4.93;;
43819;SDS011;59678;52.476;6.046;2022-08-25T02:55:28;11.30;;;5.90;;
43819;SDS011;59678;52.476;6.046;2022-08-25T02:57:53;8.30;;;5.40;;
43819;SDS011;59678;52.476;6.046;2022-08-25T03:00:19;7.20;;;5.82;;
43819;SDS011;59678;52.476;6.046;2022-08-25T03:02:45;8.48;;;4.68;;
43819;SDS011;59678;52.476;6.046;2022-08-25T03:05:11;9.70;;;4.75;;
43819;SDS011;59678;52.476;6.046;2022-08-25T03:07:38;10.57;;;5.60;;
43819;SDS011;59678;52.476;6.046;2022-08-25T03:10:08;7.32;;;4.70;;
43819;SDS011;59678;52.476;6.046;2022-08-25T03:12:35;7.68;;;4.97;;
43819;SDS011;59678;52.476;6.046;2022-08-25T03:15:01;11.57;;;5.15;;
43819;SDS011;59678;52.476;6.046;2022-08-25T03:17:27;9.65;;;5.15;;
43819;SDS011;59678;52.476;6.046;2022-08-25T03:19:53;7.63;;;4.85;;
43819;SDS011;59678;52.476;6.046;2022-08-25T03:22:18;8.75;;;5.15;;
43819;SDS011;59678;52.476;6.046;2022-08-25T03:24:45;8.45;;;4.82;;
43819;SDS011;59678;52.476;6.046;2022-08-25T03:27:11;8.98;;;4.60;;
43819;SDS011;59678;52.476;6.046;2022-08-25T03:29:37;7.18;;;4.85;;
43819;SDS011;59678;52.476;6.046;2022-08-25T03:32:03;8.75;;;5.00;;
43819;SDS011;59678;52.476;6.046;2022-08-25T03:34:29;10.13;;;4.88;;
43819;SDS011;59678;52.476;6.046;2022-08-25T03:36:55;8.32;;;4.75;;
43819;SDS011;59678;52.476;6.046;2022-08-25T03:39:22;9.48;;;4.88;;
43819;SDS011;59678;52.476;6.046;2022-08-25T03:41:48;9.90;;;4.95;;
43819;SDS011;59678;52.476;6.046;2022-08-25T03:44:14;7.70;;;4.72;;
43819;SDS011;59678;52.476;6.046;2022-08-25T03:46:41;11.00;;;4.80;;
43819;SDS011;59678;52.476;6.046;2022-08-25T03:49:08;9.63;;;5.60;;
43819;SDS011;59678;52.476;6.046;2022-08-25T03:51:36;9.82;;;5.35;;
43819;SDS011;59678;52.476;6.046;2022-08-25T03:54:03;9.20;;;5.28;;
43819;SDS011;59678;52.476;6.046;2022-08-25T03:56:28;6.75;;;5.10;;
43819;SDS011;59678;52.476;6.046;2022-08-25T03:58:54;6.93;;;5.05;;
43819;SDS011;59678;52.476;6.046;2022-08-25T04:01:20;8.13;;;4.90;;
43819;SDS011;59678;52.476;6.046;2022-08-25T04:03:46;8.23;;;4.63;;
43819;SDS011;59678;52.476;6.046;2022-08-25T04:06:12;10.20;;;4.78;;
43819;SDS011;59678;52.476;6.046;2022-08-25T04:08:37;8.23;;;4.90;;
43819;SDS011;59678;52.476;6.046;2022-08-25T04:11:10;6.63;;;4.22;;
43819;SDS011;59678;52.476;6.046;2022-08-25T04:13:37;9.90;;;5.30;;
43819;SDS011;59678;52.476;6.046;2022-08-25T04:16:08;6.65;;;4.80;;
43819;SDS011;59678;52.476;6.046;2022-08-25T04:18:34;5.45;;;4.40;;
43819;SDS011;59678;52.476;6.046;2022-08-25T04:21:01;9.85;;;5.15;;
43819;SDS011;59678;52.476;6.046;2022-08-25T04:23:26;6.47;;;4.72;;
43819;SDS011;59678;52.476;6.046;2022-08-25T04:25:52;7.47;;;4.32;;
43819;SDS011;59678;52.476;6.046;2022-08-25T04:28:17;7.45;;;4.45;;
43819;SDS011;59678;52.476;6.046;2022-08-25T04:30:43;6.00;;;3.88;;
43819;SDS011;59678;52.476;6.046;2022-08-25T04:33:08;7.32;;;4.35;;
43819;SDS011;59678;52.476;6.046;2022-08-25T04:35:34;5.30;;;4.50;;
43819;SDS011;59678;52.476;6.046;2022-08-25T04:37:59;7.10;;;3.92;;
43819;SDS011;59678;52.476;6.046;2022-08-25T04:40:25;6.72;;;3.97;;
43819;SDS011;59678;52.476;6.046;2022-08-25T04:42:50;7.95;;;4.32;;
43819;SDS011;59678;52.476;6.046;2022-08-25T04:45:16;6.43;;;4.03;;
43819;SDS011;59678;52.476;6.046;2022-08-25T04:47:41;6.40;;;4.00;;
43819;SDS011;59678;52.476;6.046;2022-08-25T04:50:07;11.55;;;3.83;;
43819;SDS011;59678;52.476;6.046;2022-08-25T04:52:33;8.32;;;4.10;;
43819;SDS011;59678;52.476;6.046;2022-08-25T04:54:58;5.65;;;3.75;;
43819;SDS011;59678;52.476;6.046;2022-08-25T04:57:24;7.03;;;4.20;;
43819;SDS011;59678;52.476;6.046;2022-08-25T04:59:50;6.35;;;3.70;;
43819;SDS011;59678;52.476;6.046;2022-08-25T05:02:16;8.70;;;3.95;;
43819;SDS011;59678;52.476;6.046;2022-08-25T05:04:41;6.57;;;4.55;;
43819;SDS011;59678;52.476;6.046;2022-08-25T05:07:07;6.75;;;4.10;;
43819;SDS011;59678;52.476;6.046;2022-08-25T05:09:33;7.43;;;4.18;;
43819;SDS011;59678;52.476;6.046;2022-08-25T05:12:02;6.57;;;4.20;;
43819;SDS011;59678;52.476;6.046;2022-08-25T05:14:28;6.18;;;4.10;;
43819;SDS011;59678;52.476;6.046;2022-08-25T05:16:54;5.78;;;3.15;;
43819;SDS011;59678;52.476;6.046;2022-08-25T05:19:19;7.82;;;4.22;;
43819;SDS011;59678;52.476;6.046;2022-08-25T05:21:45;5.03;;;3.40;;
43819;SDS011;59678;52.476;6.046;2022-08-25T05:24:10;9.25;;;4.05;;
43819;SDS011;59678;52.476;6.046;2022-08-25T05:26:36;7.55;;;3.55;;
43819;SDS011;59678;52.476;6.046;2022-08-25T05:29:04;5.93;;;3.40;;
43819;SDS011;59678;52.476;6.046;2022-08-25T05:31:30;7.80;;;3.80;;
43819;SDS011;59678;52.476;6.046;2022-08-25T05:33:56;10.10;;;3.90;;
43819;SDS011;59678;52.476;6.046;2022-08-25T05:36:22;11.75;;;4.07;;
43819;SDS011;59678;52.476;6.046;2022-08-25T05:38:48;6.90;;;3.53;;
43819;SDS011;59678;52.476;6.046;2022-08-25T05:41:15;5.65;;;3.78;;
43819;SDS011;59678;52.476;6.046;2022-08-25T05:43:41;5.22;;;3.67;;
43819;SDS011;59678;52.476;6.046;2022-08-25T05:46:08;6.03;;;3.45;;
43819;SDS011;59678;52.476;6.046;2022-08-25T05:48:33;7.60;;;3.60;;
43819;SDS011;59678;52.476;6.046;2022-08-25T05:50:59;7.75;;;3.35;;
43819;SDS011;59678;52.476;6.046;2022-08-25T05:53:26;8.30;;;3.47;;
43819;SDS011;59678;52.476;6.046;2022-08-25T05:55:52;7.13;;;3.70;;
43819;SDS011;59678;52.476;6.046;2022-08-25T05:58:18;9.70;;;3.60;;
43819;SDS011;59678;52.476;6.046;2022-08-25T06:00:44;6.28;;;3.58;;
43819;SDS011;59678;52.476;6.046;2022-08-25T06:03:10;5.95;;;3.63;;
43819;SDS011;59678;52.476;6.046;2022-08-25T06:05:35;6.65;;;3.60;;
43819;SDS011;59678;52.476;6.046;2022-08-25T06:08:01;4.47;;;3.10;;
43819;SDS011;59678;52.476;6.046;2022-08-25T06:10:27;6.85;;;3.70;;
43819;SDS011;59678;52.476;6.046;2022-08-25T06:12:52;8.80;;;3.97;;
43819;SDS011;59678;52.476;6.046;2022-08-25T06:15:19;8.27;;;3.08;;
43819;SDS011;59678;52.476;6.046;2022-08-25T06:17:45;7.30;;;3.47;;
43819;SDS011;59678;52.476;6.046;2022-08-25T06:20:13;9.48;;;3.63;;
43819;SDS011;59678;52.476;6.046;2022-08-25T06:22:39;7.53;;;3.80;;
43819;SDS011;59678;52.476;6.046;2022-08-25T06:25:05;6.95;;;3.42;;
43819;SDS011;59678;52.476;6.046;2022-08-25T06:27:32;6.95;;;4.10;;
43819;SDS011;59678;52.476;6.046;2022-08-25T06:29:57;7.13;;;3.58;;
43819;SDS011;59678;52.476;6.046;2022-08-25T06:32:23;7.90;;;4.03;;
43819;SDS011;59678;52.476;6.046;2022-08-25T06:34:48;7.18;;;3.33;;
43819;SDS011;59678;52.476;6.046;2022-08-25T06:37:14;6.50;;;3.67;;
43819;SDS011;59678;52.476;6.046;2022-08-25T06:39:39;8.65;;;3.72;;
43819;SDS011;59678;52.476;6.046;2022-08-25T06:42:05;7.53;;;3.72;;
43819;SDS011;59678;52.476;6.046;2022-08-25T06:44:30;5.20;;;3.20;;
43819;SDS011;59678;52.476;6.046;2022-08-25T06:46:56;4.45;;;2.80;;
43819;SDS011;59678;52.476;6.046;2022-08-25T06:49:21;8.10;;;3.10;;
43819;SDS011;59678;52.476;6.046;2022-08-25T06:51:47;5.00;;;2.92;;
43819;SDS011;59678;52.476;6.046;2022-08-25T06:54:13;4.18;;;2.50;;
43819;SDS011;59678;52.476;6.046;2022-08-25T06:56:39;5.40;;;2.50;;
43819;SDS011;59678;52.476;6.046;2022-08-25T06:59:05;6.03;;;2.75;;
43819;SDS011;59678;52.476;6.046;2022-08-25T07:01:33;5.57;;;2.72;;
43819;SDS011;59678;52.476;6.046;2022-08-25T07:03:59;6.18;;;2.65;;
43819;SDS011;59678;52.476;6.046;2022-08-25T07:06:26;4.15;;;2.63;;
43819;SDS011;59678;52.476;6.046;2022-08-25T07:08:52;7.50;;;2.83;;
43819;SDS011;59678;52.476;6.046;2022-08-25T07:11:17;6.05;;;2.78;;
43819;SDS011;59678;52.476;6.046;2022-08-25T07:13:45;6.32;;;2.90;;
43819;SDS011;59678;52.476;6.046;2022-08-25T07:16:11;5.20;;;2.33;;
43819;SDS011;59678;52.476;6.046;2022-08-25T07:18:37;7.07;;;2.83;;
43819;SDS011;59678;52.476;6.046;2022-08-25T07:21:02;7.10;;;2.88;;
43819;SDS011;59678;52.476;6.046;2022-08-25T07:23:28;3.83;;;2.53;;
43819;SDS011;59678;52.476;6.046;2022-08-25T07:25:54;7.05;;;2.28;;
43819;SDS011;59678;52.476;6.046;2022-08-25T07:28:20;6.75;;;2.90;;
43819;SDS011;59678;52.476;6.046;2022-08-25T07:30:46;7.70;;;2.30;;
43819;SDS011;59678;52.476;6.046;2022-08-25T07:33:11;5.50;;;2.67;;
43819;SDS011;59678;52.476;6.046;2022-08-25T07:35:37;5.70;;;2.22;;
43819;SDS011;59678;52.476;6.046;2022-08-25T07:38:03;14.27;;;3.13;;
43819;SDS011;59678;52.476;6.046;2022-08-25T07:40:31;5.53;;;2.33;;
43819;SDS011;59678;52.476;6.046;2022-08-25T07:42:58;4.25;;;2.47;;
43819;SDS011;59678;52.476;6.046;2022-08-25T07:45:25;4.97;;;2.45;;
43819;SDS011;59678;52.476;6.046;2022-08-25T07:47:55;5.25;;;2.65;;
43819;SDS011;59678;52.476;6.046;2022-08-25T07:50:21;5.65;;;2.40;;
43819;SDS011;59678;52.476;6.046;2022-08-25T07:52:52;3.95;;;2.30;;
43819;SDS011;59678;52.476;6.046;2022-08-25T07:55:18;4.60;;;2.22;;
43819;SDS011;59678;52.476;6.046;2022-08-25T07:57:43;5.43;;;2.60;;
43819;SDS011;59678;52.476;6.046;2022-08-25T08:00:09;6.50;;;2.50;;
43819;SDS011;59678;52.476;6.046;2022-08-25T08:02:40;5.53;;;2.55;;
43819;SDS011;59678;52.476;6.046;2022-08-25T08:05:06;8.32;;;2.50;;
43819;SDS011;59678;52.476;6.046;2022-08-25T08:07:32;5.22;;;2.55;;
43819;SDS011;59678;52.476;6.046;2022-08-25T08:09:57;4.70;;;2.50;;
43819;SDS011;59678;52.476;6.046;2022-08-25T08:12:23;6.80;;;2.50;;
43819;SDS011;59678;52.476;6.046;2022-08-25T08:14:49;11.20;;;2.85;;
43819;SDS011;59678;52.476;6.046;2022-08-25T08:17:15;5.97;;;2.25;;
43819;SDS011;59678;52.476;6.046;2022-08-25T08:19:41;6.03;;;2.20;;
43819;SDS011;59678;52.476;6.046;2022-08-25T08:22:07;6.82;;;3.08;;
43819;SDS011;59678;52.476;6.046;2022-08-25T08:24:36;4.38;;;2.63;;
43819;SDS011;59678;52.476;6.046;2022-08-25T08:27:04;6.55;;;2.72;;
43819;SDS011;59678;52.476;6.046;2022-08-25T08:29:29;6.65;;;2.42;;
43819;SDS011;59678;52.476;6.046;2022-08-25T08:31:55;6.70;;;2.60;;
43819;SDS011;59678;52.476;6.046;2022-08-25T08:34:20;5.80;;;2.92;;
43819;SDS011;59678;52.476;6.046;2022-08-25T08:36:48;4.57;;;2.80;;
43819;SDS011;59678;52.476;6.046;2022-08-25T08:39:13;4.85;;;2.60;;
43819;SDS011;59678;52.476;6.046;2022-08-25T08:44:40;5.47;;;3.15;;
43819;SDS011;59678;52.476;6.046;2022-08-25T08:47:10;7.10;;;3.08;;
43819;SDS011;59678;52.476;6.046;2022-08-25T08:49:43;6.13;;;2.60;;
43819;SDS011;59678;52.476;6.046;2022-08-25T08:52:10;3.92;;;2.83;;
43819;SDS011;59678;52.476;6.046;2022-08-25T08:54:39;5.13;;;2.50;;
43819;SDS011;59678;52.476;6.046;2022-08-25T08:57:10;8.70;;;3.15;;
43819;SDS011;59678;52.476;6.046;2022-08-25T09:00:20;7.35;;;2.92;;
43819;SDS011;59678;52.476;6.046;2022-08-25T09:02:41;6.32;;;2.72;;
43819;SDS011;59678;52.476;6.046;2022-08-25T09:05:10;4.25;;;2.80;;
43819;SDS011;59678;52.476;6.046;2022-08-25T09:07:40;7.45;;;2.63;;
43819;SDS011;59678;52.476;6.046;2022-08-25T09:10:09;4.78;;;2.85;;
43819;SDS011;59678;52.476;6.046;2022-08-25T09:18:07;8.35;;;2.67;;
43819;SDS011;59678;52.476;6.046;2022-08-25T09:28:38;6.07;;;3.22;;
43819;SDS011;59678;52.476;6.046;2022-08-25T09:33:46;7.40;;;2.78;;
43819;SDS011;59678;52.476;6.046;2022-08-25T09:36:12;5.30;;;2.70;;
43819;SDS011;59678;52.476;6.046;2022-08-25T09:38:38;5.15;;;2.58;;
43819;SDS011;59678;52.476;6.046;2022-08-25T09:41:03;5.75;;;2.72;;
43819;SDS011;59678;52.476;6.046;2022-08-25T09:45:59;6.03;;;2.58;;
43819;SDS011;59678;52.476;6.046;2022-08-25T09:48:29;6.90;;;2.97;;
43819;SDS011;59678;52.476;6.046;2022-08-25T09:51:09;6.22;;;2.72;;
43819;SDS011;59678;52.476;6.046;2022-08-25T09:53:36;4.75;;;2.80;;
43819;SDS011;59678;52.476;6.046;2022-08-25T09:56:07;8.25;;;2.97;;
43819;SDS011;59678;52.476;6.046;2022-08-25T09:58:34;4.15;;;2.45;;
43819;SDS011;59678;52.476;6.046;2022-08-25T10:01:01;5.50;;;2.22;;
43819;SDS011;59678;52.476;6.046;2022-08-25T10:03:28;5.80;;;3.00;;
43819;SDS011;59678;52.476;6.046;2022-08-25T10:08:30;5.45;;;2.58;;
43819;SDS011;59678;52.476;6.046;2022-08-25T10:10:57;5.05;;;2.38;;
43819;SDS011;59678;52.476;6.046;2022-08-25T10:13:32;3.97;;;2.50;;
43819;SDS011;59678;52.476;6.046;2022-08-25T10:16:04;6.53;;;2.35;;
43819;SDS011;59678;52.476;6.046;2022-08-25T10:18:30;4.90;;;2.20;;
43819;SDS011;59678;52.476;6.046;2022-08-25T10:21:00;7.63;;;2.47;;
43819;SDS011;59678;52.476;6.046;2022-08-25T10:23:26;4.63;;;2.42;;
43819;SDS011;59678;52.476;6.046;2022-08-25T10:25:51;5.07;;;3.03;;
43819;SDS011;59678;52.476;6.046;2022-08-25T10:35:56;4.47;;;2.55;;
43819;SDS011;59678;52.476;6.046;2022-08-25T10:43:48;5.85;;;2.25;;
43819;SDS011;59678;52.476;6.046;2022-08-25T10:46:36;3.85;;;1.85;;
43819;SDS011;59678;52.476;6.046;2022-08-25T10:51:49;6.00;;;2.17;;
43819;SDS011;59678;52.476;6.046;2022-08-25T10:56:45;7.28;;;2.53;;
43819;SDS011;59678;52.476;6.046;2022-08-25T11:04:30;5.70;;;1.90;;
43819;SDS011;59678;52.476;6.046;2022-08-25T11:09:44;3.25;;;1.92;;
43819;SDS011;59678;52.476;6.046;2022-08-25T11:12:18;2.78;;;1.73;;
43819;SDS011;59678;52.476;6.046;2022-08-25T11:17:57;3.55;;;1.70;;
43819;SDS011;59678;52.476;6.046;2022-08-25T11:20:03;3.88;;;1.83;;
43819;SDS011;59678;52.476;6.046;2022-08-25T11:22:44;5.23;;;2.07;;
43819;SDS011;59678;52.476;6.046;2022-08-25T11:30:37;6.28;;;2.00;;
43819;SDS011;59678;52.476;6.046;2022-08-25T11:33:03;5.50;;;2.47;;
43819;SDS011;59678;52.476;6.046;2022-08-25T11:38:02;5.63;;;1.80;;
43819;SDS011;59678;52.476;6.046;2022-08-25T11:40:37;2.40;;;1.63;;
43819;SDS011;59678;52.476;6.046;2022-08-25T11:43:23;3.35;;;1.83;;
43819;SDS011;59678;52.476;6.046;2022-08-25T11:45:53;3.83;;;2.03;;
43819;SDS011;59678;52.476;6.046;2022-08-25T11:50:54;3.33;;;2.20;;
43819;SDS011;59678;52.476;6.046;2022-08-25T11:53:23;5.90;;;1.67;;
43819;SDS011;59678;52.476;6.046;2022-08-25T11:55:53;4.53;;;1.73;;
43819;SDS011;59678;52.476;6.046;2022-08-25T11:58:24;4.63;;;1.83;;
43819;SDS011;59678;52.476;6.046;2022-08-25T12:00:53;3.10;;;1.40;;
43819;SDS011;59678;52.476;6.046;2022-08-25T12:08:50;2.70;;;1.40;;
43819;SDS011;59678;52.476;6.046;2022-08-25T12:19:24;2.20;;;1.58;;
43819;SDS011;59678;52.476;6.046;2022-08-25T12:21:51;3.28;;;1.83;;
43819;SDS011;59678;52.476;6.046;2022-08-25T12:24:21;3.90;;;1.80;;
43819;SDS011;59678;52.476;6.046;2022-08-25T12:29:19;2.40;;;1.73;;
43819;SDS011;59678;52.476;6.046;2022-08-25T12:31:56;2.63;;;1.60;;
43819;SDS011;59678;52.476;6.046;2022-08-25T12:37:03;3.25;;;1.70;;
43819;SDS011;59678;52.476;6.046;2022-08-25T12:39:30;4.15;;;1.75;;
43819;SDS011;59678;52.476;6.046;2022-08-25T12:41:58;2.80;;;1.92;;
43819;SDS011;59678;52.476;6.046;2022-08-25T12:49:51;3.47;;;1.60;;
43819;SDS011;59678;52.476;6.046;2022-08-25T12:52:18;3.65;;;1.80;;
43819;SDS011;59678;52.476;6.046;2022-08-25T12:54:56;3.05;;;1.90;;
43819;SDS011;59678;52.476;6.046;2022-08-25T13:00:09;3.63;;;1.88;;
43819;SDS011;59678;52.476;6.046;2022-08-25T13:10:44;3.47;;;2.00;;
43819;SDS011;59678;52.476;6.046;2022-08-25T13:15:38;4.72;;;2.20;;
43819;SDS011;59678;52.476;6.046;2022-08-25T13:21:12;4.45;;;2.10;;
43819;SDS011;59678;52.476;6.046;2022-08-25T13:23:40;3.50;;;2.05;;
43819;SDS011;59678;52.476;6.046;2022-08-25T13:26:06;3.20;;;1.80;;
43819;SDS011;59678;52.476;6.046;2022-08-25T13:28:35;2.67;;;1.75;;
43819;SDS011;59678;52.476;6.046;2022-08-25T13:31:04;3.15;;;1.98;;
43819;SDS011;59678;52.476;6.046;2022-08-25T13:33:29;3.28;;;2.10;;
43819;SDS011;59678;52.476;6.046;2022-08-25T13:35:56;2.67;;;2.03;;
43819;SDS011;59678;52.476;6.046;2022-08-25T13:38:41;3.95;;;2.03;;
43819;SDS011;59678;52.476;6.046;2022-08-25T13:41:07;3.53;;;1.80;;
43819;SDS011;59678;52.476;6.046;2022-08-25T13:43:34;4.95;;;1.80;;
43819;SDS011;59678;52.476;6.046;2022-08-25T13:46:00;3.85;;;1.70;;
43819;SDS011;59678;52.476;6.046;2022-08-25T13:48:35;3.05;;;2.30;;
43819;SDS011;59678;52.476;6.046;2022-08-25T13:51:09;3.83;;;1.70;;
43819;SDS011;59678;52.476;6.046;2022-08-25T13:53:40;4.70;;;1.90;;
43819;SDS011;59678;52.476;6.046;2022-08-25T13:56:12;2.83;;;1.75;;
43819;SDS011;59678;52.476;6.046;2022-08-25T13:58:47;2.42;;;1.70;;
43819;SDS011;59678;52.476;6.046;2022-08-25T14:01:14;3.38;;;2.10;;
43819;SDS011;59678;52.476;6.046;2022-08-25T14:03:42;3.67;;;2.00;;
43819;SDS011;59678;52.476;6.046;2022-08-25T14:06:09;3.85;;;2.20;;
43819;SDS011;59678;52.476;6.046;2022-08-25T14:08:37;2.50;;;1.13;;
43819;SDS011;59678;52.476;6.046;2022-08-25T14:11:09;2.80;;;1.90;;
43819;SDS011;59678;52.476;6.046;2022-08-25T14:13:36;3.53;;;2.00;;
43819;SDS011;59678;52.476;6.046;2022-08-25T14:16:22;3.42;;;2.00;;
43819;SDS011;59678;52.476;6.046;2022-08-25T14:18:49;4.40;;;2.13;;
43819;SDS011;59678;52.476;6.046;2022-08-25T14:21:15;5.13;;;1.77;;
43819;SDS011;59678;52.476;6.046;2022-08-25T14:23:41;3.47;;;1.90;;
43819;SDS011;59678;52.476;6.046;2022-08-25T14:26:07;2.92;;;2.10;;
43819;SDS011;59678;52.476;6.046;2022-08-25T14:28:32;3.30;;;2.10;;
43819;SDS011;59678;52.476;6.046;2022-08-25T14:31:03;2.65;;;1.92;;
43819;SDS011;59678;52.476;6.046;2022-08-25T14:33:32;2.70;;;1.95;;
43819;SDS011;59678;52.476;6.046;2022-08-25T14:35:58;3.20;;;1.90;;
43819;SDS011;59678;52.476;6.046;2022-08-25T14:38:24;6.15;;;2.45;;
43819;SDS011;59678;52.476;6.046;2022-08-25T14:40:50;2.75;;;1.70;;
43819;SDS011;59678;52.476;6.046;2022-08-25T14:43:17;2.58;;;1.80;;
43819;SDS011;59678;52.476;6.046;2022-08-25T14:45:44;2.60;;;1.90;;
43819;SDS011;59678;52.476;6.046;2022-08-25T14:48:12;4.88;;;2.10;;
43819;SDS011;59678;52.476;6.046;2022-08-25T14:50:38;3.75;;;1.98;;
43819;SDS011;59678;52.476;6.046;2022-08-25T14:53:05;5.57;;;2.13;;
43819;SDS011;59678;52.476;6.046;2022-08-25T14:55:30;3.25;;;2.08;;
43819;SDS011;59678;52.476;6.046;2022-08-25T14:57:56;3.08;;;2.10;;
43819;SDS011;59678;52.476;6.046;2022-08-25T15:00:21;3.83;;;1.70;;
43819;SDS011;59678;52.476;6.046;2022-08-25T15:02:47;3.10;;;2.25;;
43819;SDS011;59678;52.476;6.046;2022-08-25T15:05:14;3.83;;;1.83;;
43819;SDS011;59678;52.476;6.046;2022-08-25T15:07:40;2.42;;;1.65;;
43819;SDS011;59678;52.476;6.046;2022-08-25T15:10:25;2.83;;;1.85;;
43819;SDS011;59678;52.476;6.046;2022-08-25T15:12:50;3.67;;;2.40;;
43819;SDS011;59678;52.476;6.046;2022-08-25T15:15:16;3.78;;;1.90;;
43819;SDS011;59678;52.476;6.046;2022-08-25T15:17:42;4.13;;;1.88;;
43819;SDS011;59678;52.476;6.046;2022-08-25T15:20:08;5.05;;;2.28;;
43819;SDS011;59678;52.476;6.046;2022-08-25T15:22:34;2.45;;;1.98;;
43819;SDS011;59678;52.476;6.046;2022-08-25T15:25:00;5.47;;;2.35;;
43819;SDS011;59678;52.476;6.046;2022-08-25T15:27:26;4.05;;;1.73;;
43819;SDS011;59678;52.476;6.046;2022-08-25T15:29:52;4.45;;;2.20;;
43819;SDS011;59678;52.476;6.046;2022-08-25T15:32:18;2.80;;;1.67;;
43819;SDS011;59678;52.476;6.046;2022-08-25T15:34:43;2.85;;;1.80;;
43819;SDS011;59678;52.476;6.046;2022-08-25T15:37:10;2.95;;;1.80;;
43819;SDS011;59678;52.476;6.046;2022-08-25T15:39:36;5.63;;;2.03;;
43819;SDS011;59678;52.476;6.046;2022-08-25T15:42:03;4.85;;;2.20;;
43819;SDS011;59678;52.476;6.046;2022-08-25T15:44:29;4.55;;;1.90;;
43819;SDS011;59678;52.476;6.046;2022-08-25T15:46:56;3.65;;;2.30;;
43819;SDS011;59678;52.476;6.046;2022-08-25T15:49:21;3.97;;;2.03;;
43819;SDS011;59678;52.476;6.046;2022-08-25T15:51:47;2.88;;;1.90;;
43819;SDS011;59678;52.476;6.046;2022-08-25T15:54:12;3.85;;;1.92;;
43819;SDS011;59678;52.476;6.046;2022-08-25T15:56:38;3.95;;;1.83;;
43819;SDS011;59678;52.476;6.046;2022-08-25T15:59:04;4.80;;;1.90;;
43819;SDS011;59678;52.476;6.046;2022-08-25T16:01:30;5.97;;;2.20;;
43819;SDS011;59678;52.476;6.046;2022-08-25T16:03:55;3.20;;;2.13;;
43819;SDS011;59678;52.476;6.046;2022-08-25T16:06:21;4.10;;;2.40;;
43819;SDS011;59678;52.476;6.046;2022-08-25T16:08:48;3.72;;;2.15;;
43819;SDS011;59678;52.476;6.046;2022-08-25T16:11:15;5.30;;;2.38;;
43819;SDS011;59678;52.476;6.046;2022-08-25T16:13:42;2.88;;;2.00;;
43819;SDS011;59678;52.476;6.046;2022-08-25T16:16:07;6.65;;;2.47;;
43819;SDS011;59678;52.476;6.046;2022-08-25T16:18:33;3.90;;;2.13;;
43819;SDS011;59678;52.476;6.046;2022-08-25T16:20:58;5.25;;;2.08;;
43819;SDS011;59678;52.476;6.046;2022-08-25T16:23:24;2.40;;;2.20;;
43819;SDS011;59678;52.476;6.046;2022-08-25T16:25:50;2.95;;;2.10;;
43819;SDS011;59678;52.476;6.046;2022-08-25T16:28:16;4.43;;;2.03;;
43819;SDS011;59678;52.476;6.046;2022-08-25T16:30:46;3.05;;;2.20;;
43819;SDS011;59678;52.476;6.046;2022-08-25T16:33:11;3.42;;;1.90;;
43819;SDS011;59678;52.476;6.046;2022-08-25T16:35:37;3.10;;;2.00;;